Time;durP1;ratioP1;P1;durP2;ratioP2;P2;SDS_P1;SDS_P2;PMS_P1;PMS_P2;Temp;Humidity;BMP_temperature;BMP_pressure;BME280_temperature;BME280_humidity;BME280_pressure;Samples;Min_cycle;Max_cycle;Signal;HPM_P1;HPM_P2
2021/09/17 00:01:44;;;;;;;4.13;3.47;;;;;;;15.02;78.12;96883.69;5026866;28;20191;-63
2021/09/17 00:04:10;;;;;;;4.10;3.17;;;;;;;15.00;78.20;96881.31;5032280;28;20213;-64
2021/09/17 00:06:35;;;;;;;3.57;3.27;;;;;;;15.07;77.50;96878.47;5015496;28;20202;-63
2021/09/17 00:09:01;;;;;;;3.13;2.83;;;;;;;15.06;77.54;96879.50;5019973;28;20182;-63
2021/09/17 00:11:26;;;;;;;3.80;2.73;;;;;;;15.13;77.33;96877.44;5024266;28;20199;-63
2021/09/17 00:13:51;;;;;;;2.83;2.63;;;;;;;15.12;77.82;96884.56;5027466;28;20273;-63
2021/09/17 00:16:17;;;;;;;3.80;2.43;;;;;;;15.17;77.43;96883.81;5017447;28;20551;-63
2021/09/17 00:18:43;;;;;;;3.03;2.33;;;;;;;15.15;77.51;96880.66;5029603;28;20254;-63
2021/09/17 00:21:08;;;;;;;4.43;2.40;;;;;;;15.14;77.88;96877.22;5021688;28;20204;-63
2021/09/17 00:23:34;;;;;;;2.90;2.70;;;;;;;15.14;78.34;96884.31;5023652;28;20198;-64
2021/09/17 00:26:00;;;;;;;3.20;3.00;;;;;;;15.20;78.39;96884.13;5010849;28;20190;-64
2021/09/17 00:28:25;;;;;;;2.93;2.73;;;;;;;15.31;78.35;96883.16;4997983;28;20238;-64
2021/09/17 00:30:51;;;;;;;3.00;2.80;;;;;;;15.37;77.94;96886.63;5026570;28;20192;-64
2021/09/17 00:33:17;;;;;;;2.93;2.73;;;;;;;15.36;78.37;96879.75;5022186;28;20635;-64
2021/09/17 00:35:42;;;;;;;3.83;3.13;;;;;;;15.30;78.63;96876.25;5028462;28;20183;-64
2021/09/17 00:38:07;;;;;;;3.03;2.73;;;;;;;15.32;79.45;96874.16;5017331;28;20210;-64
2021/09/17 00:40:33;;;;;;;3.43;3.17;;;;;;;15.27;80.24;96863.56;5031018;28;20230;-64
2021/09/17 00:42:59;;;;;;;3.43;3.20;;;;;;;15.32;79.87;96868.88;5009727;28;20270;-64
2021/09/17 00:45:25;;;;;;;3.40;3.10;;;;;;;15.40;79.56;96860.47;5022576;28;20631;-64
2021/09/17 00:47:51;;;;;;;3.73;2.90;;;;;;;15.46;79.19;96871.88;5003318;28;20253;-64
2021/09/17 00:50:19;;;;;;;3.20;3.00;;;;;;;15.43;79.49;96861.81;5029996;28;20611;-65
2021/09/17 00:52:46;;;;;;;2.80;2.60;;;;;;;15.40;79.67;96863.13;5032056;28;20542;-64
2021/09/17 00:55:12;;;;;;;3.27;3.07;;;;;;;15.38;79.49;96867.06;5026349;28;20183;-64
2021/09/17 00:57:38;;;;;;;3.13;2.83;;;;;;;15.38;79.44;96864.41;5023936;28;20610;-64
2021/09/17 01:00:06;;;;;;;3.63;2.90;;;;;;;15.30;79.74;96865.69;5018521;28;20187;-64
2021/09/17 01:02:31;;;;;;;3.00;2.70;;;;;;;15.33;79.82;96856.47;5029394;28;20278;-64
2021/09/17 01:04:57;;;;;;;3.43;2.90;;;;;;;15.32;80.04;96868.09;5018215;28;20236;-63
2021/09/17 01:07:23;;;;;;;3.50;3.20;;;;;;;15.38;80.02;96859.13;5024669;28;20566;-63
2021/09/17 01:09:48;;;;;;;3.50;3.20;;;;;;;15.42;80.02;96860.22;5025509;28;20270;-63
2021/09/17 01:12:15;;;;;;;3.27;3.07;;;;;;;15.42;79.69;96859.44;5018049;28;20263;-63
2021/09/17 01:14:41;;;;;;;2.93;2.73;;;;;;;15.41;79.71;96858.63;5030373;28;20640;-63
2021/09/17 01:17:07;;;;;;;3.47;3.27;;;;;;;15.45;79.51;96856.28;5018968;28;20194;-64
2021/09/17 01:19:36;;;;;;;3.50;3.20;;;;;;;15.42;79.60;96848.88;5021824;28;20635;-63
2021/09/17 01:22:07;;;;;;;3.83;3.10;;;;;;;15.43;79.33;96853.91;5030589;28;20249;-63
2021/09/17 01:24:34;;;;;;;3.80;3.17;;;;;;;15.44;79.86;96855.47;5017066;28;20179;-63
2021/09/17 01:26:59;;;;;;;4.40;4.00;;;;;;;15.45;80.00;96859.72;5027843;28;20294;-63
2021/09/17 01:29:25;;;;;;;4.00;3.50;;;;;;;15.50;79.73;96849.16;5021821;28;20278;-64
2021/09/17 01:31:51;;;;;;;4.00;3.70;;;;;;;15.48;79.64;96858.41;5020701;28;20547;-63
2021/09/17 01:34:19;;;;;;;5.17;3.50;;;;;;;15.53;79.78;96847.91;5021589;28;20186;-63
2021/09/17 01:36:45;;;;;;;3.90;3.60;;;;;;;15.58;79.67;96855.84;5023246;28;20214;-63
2021/09/17 01:39:11;;;;;;;4.73;3.93;;;;;;;15.51;80.07;96853.41;5018472;28;20202;-63
2021/09/17 01:41:37;;;;;;;5.07;4.67;;;;;;;15.47;80.84;96841.75;5029665;28;20292;-63
2021/09/17 01:44:03;;;;;;;4.70;4.30;;;;;;;15.49;80.57;96839.66;5026825;28;20579;-63
2021/09/17 01:46:28;;;;;;;5.53;5.03;;;;;;;15.35;81.12;96839.31;5004241;28;20179;-63
2021/09/17 01:48:53;;;;;;;6.73;5.10;;;;;;;15.40;81.44;96838.56;5026734;28;20216;-63
2021/09/17 01:51:19;;;;;;;5.50;5.00;;;;;;;15.42;81.67;96835.66;5031178;28;20186;-63
2021/09/17 01:53:44;;;;;;;6.17;4.90;;;;;;;15.47;81.49;96835.69;5013591;28;20233;-63
2021/09/17 01:56:10;;;;;;;5.00;4.57;;;;;;;15.51;81.03;96832.28;5013865;28;20539;-63
2021/09/17 01:58:35;;;;;;;4.60;4.20;;;;;;;15.50;81.24;96830.69;5023047;28;20233;-63
2021/09/17 02:01:01;;;;;;;4.60;4.20;;;;;;;15.44;81.45;96822.97;5025589;28;20647;-63
2021/09/17 02:03:27;;;;;;;8.90;3.90;;;;;;;15.46;81.44;96824.31;5022552;28;20194;-63
2021/09/17 02:05:52;;;;;;;3.97;3.60;;;;;;;15.48;81.30;96822.22;5002472;28;20210;-64
2021/09/17 02:08:17;;;;;;;4.87;4.47;;;;;;;15.28;82.27;96822.91;5011168;28;20187;-63
2021/09/17 02:10:43;;;;;;;4.23;3.83;;;;;;;15.29;82.22;96824.50;5017391;28;20175;-63
2021/09/17 02:13:09;;;;;;;4.57;4.17;;;;;;;15.23;82.53;96825.50;5024721;28;20249;-63
2021/09/17 02:15:35;;;;;;;7.77;4.17;;;;;;;15.26;82.58;96821.56;5023559;28;20191;-63
2021/09/17 02:18:01;;;;;;;4.20;3.80;;;;;;;15.29;82.28;96815.78;5000365;28;20207;-63
2021/09/17 02:20:26;;;;;;;4.93;4.40;;;;;;;15.40;81.91;96822.69;5028490;28;20183;-64
2021/09/17 02:22:52;;;;;;;5.73;5.03;;;;;;;15.25;82.20;96822.63;5030935;28;20178;-64
2021/09/17 02:25:17;;;;;;;4.77;4.37;;;;;;;15.38;81.55;96815.03;5024121;28;20185;-63
2021/09/17 02:27:43;;;;;;;5.17;4.67;;;;;;;15.39;82.17;96821.91;5024409;28;20209;-63
2021/09/17 02:30:10;;;;;;;4.67;4.27;;;;;;;15.41;81.89;96824.28;5017438;28;20191;-63
2021/09/17 02:32:35;;;;;;;5.10;4.60;;;;;;;15.39;81.70;96823.75;5029569;28;20233;-63
2021/09/17 02:35:01;;;;;;;5.33;4.83;;;;;;;15.36;81.56;96817.16;5017265;28;20590;-64
2021/09/17 02:37:27;;;;;;;5.80;5.03;;;;;;;15.38;81.48;96815.03;5023251;28;20281;-63
2021/09/17 02:39:52;;;;;;;5.30;4.83;;;;;;;15.39;81.48;96816.63;5032536;28;20297;-64
2021/09/17 02:42:17;;;;;;;5.37;4.87;;;;;;;15.43;81.15;96821.41;5034597;28;20222;-64
2021/09/17 02:44:43;;;;;;;5.27;4.80;;;;;;;15.43;80.96;96810.84;5017297;28;20648;-63
2021/09/17 02:47:08;;;;;;;5.80;4.77;;;;;;;15.47;81.19;96819.84;5031473;28;20182;-64
2021/09/17 02:49:34;;;;;;;5.00;4.47;;;;;;;15.47;81.08;96814.56;5027216;28;20270;-64
2021/09/17 02:52:00;;;;;;;5.43;4.80;;;;;;;15.50;80.97;96814.81;5028201;28;20274;-64
2021/09/17 02:54:26;;;;;;;6.33;4.20;;;;;;;15.49;81.12;96810.59;5030406;28;20193;-63
2021/09/17 02:56:51;;;;;;;5.77;4.60;;;;;;;15.33;82.02;96808.91;5018512;28;20603;-63
2021/09/17 02:59:17;;;;;;;5.47;4.97;;;;;;;15.36;82.04;96809.22;5030828;28;20183;-64
2021/09/17 03:01:42;;;;;;;7.80;4.47;;;;;;;15.35;82.10;96802.34;5025330;28;20542;-63
2021/09/17 03:04:07;;;;;;;5.00;4.50;;;;;;;15.42;81.79;96806.59;5022972;28;20187;-64
2021/09/17 03:06:33;;;;;;;7.70;4.70;;;;;;;15.45;81.76;96798.94;5030979;28;20233;-63
2021/09/17 03:08:58;;;;;;;4.43;4.03;;;;;;;15.42;82.06;96796.84;5018376;28;20206;-63
2021/09/17 03:11:23;;;;;;;5.30;4.53;;;;;;;15.44;82.34;96793.91;5028623;28;20183;-63
2021/09/17 03:13:49;;;;;;;4.80;4.40;;;;;;;15.48;81.73;96800.31;5025795;28;20608;-63
2021/09/17 03:16:14;;;;;;;5.13;4.63;;;;;;;15.45;81.63;96798.16;5021618;28;20210;-63
2021/09/17 03:18:40;;;;;;;5.20;4.80;;;;;;;15.22;83.63;96796.72;5013603;28;20269;-64
2021/09/17 03:21:05;;;;;;;5.27;4.70;;;;;;;14.94;85.43;96789.94;5018661;28;20237;-63
2021/09/17 03:23:31;;;;;;;5.47;4.67;;;;;;;15.09;85.23;96800.59;5034059;28;20300;-63
2021/09/17 03:25:57;;;;;;;5.27;4.77;;;;;;;15.19;85.07;96789.31;5021575;28;20261;-64
2021/09/17 03:28:22;;;;;;;6.17;4.87;;;;;;;15.18;85.21;96791.16;5032992;28;20545;-63
2021/09/17 03:30:48;;;;;;;6.13;5.10;;;;;;;15.26;84.91;96793.31;5020055;28;20187;-63
2021/09/17 03:33:15;;;;;;;5.27;4.80;;;;;;;15.30;84.67;96799.69;5026328;28;20183;-64
2021/09/17 03:35:41;;;;;;;5.27;4.83;;;;;;;15.30;84.74;96796.25;5019323;28;20184;-64
2021/09/17 03:38:07;;;;;;;5.20;4.70;;;;;;;15.36;84.59;96798.66;5001519;28;20236;-63
2021/09/17 03:40:37;;;;;;;6.40;5.43;;;;;;;15.33;84.25;96793.88;5028581;28;20234;-63
2021/09/17 03:43:03;;;;;;;6.23;4.93;;;;;;;15.37;84.05;96796.81;5001791;28;20189;-64
2021/09/17 03:45:31;;;;;;;5.40;4.90;;;;;;;15.36;83.97;96800.50;5018295;28;20187;-64
2021/09/17 03:47:57;;;;;;;5.60;5.07;;;;;;;15.35;84.17;96796.25;5022450;28;20198;-64
2021/09/17 03:50:23;;;;;;;7.07;4.97;;;;;;;15.32;84.67;96794.91;5022319;28;20191;-64
2021/09/17 03:52:48;;;;;;;6.93;5.43;;;;;;;15.35;84.14;96794.41;5020303;28;20286;-63
2021/09/17 03:55:13;;;;;;;4.90;4.50;;;;;;;15.37;84.43;96799.44;5028710;28;20178;-64
2021/09/17 03:57:39;;;;;;;4.80;4.37;;;;;;;15.43;83.94;96797.63;5027465;28;20711;-64
2021/09/17 04:00:05;;;;;;;5.90;5.33;;;;;;;15.37;84.01;96791.53;5000519;28;20220;-64
2021/09/17 04:02:31;;;;;;;5.47;4.97;;;;;;;15.38;83.18;96793.91;5025429;28;20198;-64
2021/09/17 04:04:56;;;;;;;5.40;4.93;;;;;;;15.13;84.10;96791.13;5004760;28;20176;-63
2021/09/17 04:07:21;;;;;;;5.83;5.17;;;;;;;15.23;83.56;96785.09;5017983;28;20218;-63
2021/09/17 04:09:47;;;;;;;5.50;5.00;;;;;;;15.25;83.24;96780.38;5028311;28;20571;-63
2021/09/17 04:12:12;;;;;;;5.23;4.73;;;;;;;15.37;82.31;96784.41;5027682;28;20200;-64
2021/09/17 04:14:38;;;;;;;5.47;4.93;;;;;;;15.39;82.36;96784.13;5026946;28;20637;-64
2021/09/17 04:17:03;;;;;;;5.60;4.97;;;;;;;15.38;82.41;96778.03;5015239;28;20672;-64
2021/09/17 04:19:28;;;;;;;8.20;5.17;;;;;;;15.40;83.02;96777.81;5018186;28;20183;-64
2021/09/17 04:21:54;;;;;;;6.10;5.27;;;;;;;15.32;83.75;96778.31;5022276;28;20546;-64
2021/09/17 04:24:19;;;;;;;6.53;5.47;;;;;;;15.28;84.78;96782.47;5030295;28;20178;-63
2021/09/17 04:26:45;;;;;;;5.73;5.23;;;;;;;15.34;83.96;96787.53;5014548;28;20273;-63
2021/09/17 04:29:10;;;;;;;7.30;5.67;;;;;;;15.36;83.92;96787.28;5030820;28;20266;-63
2021/09/17 04:31:35;;;;;;;5.90;5.30;;;;;;;15.10;83.75;96788.97;5019107;28;20195;-63
2021/09/17 04:34:01;;;;;;;9.00;6.10;;;;;;;15.12;83.76;96788.72;5021478;28;20179;-63
2021/09/17 04:36:26;;;;;;;6.03;5.03;;;;;;;14.99;85.00;96793.41;5025849;28;20202;-63
2021/09/17 04:38:52;;;;;;;5.83;5.33;;;;;;;15.25;84.14;96798.84;5024991;28;20190;-64
2021/09/17 04:41:17;;;;;;;5.37;4.87;;;;;;;15.12;84.95;96788.72;5030665;28;20562;-64
2021/09/17 04:43:43;;;;;;;8.30;5.67;;;;;;;15.12;85.03;96797.44;5028218;28;20636;-63
2021/09/17 04:46:08;;;;;;;6.70;5.97;;;;;;;15.19;84.42;96799.88;5032650;28;20195;-63
2021/09/17 04:48:34;;;;;;;7.77;5.53;;;;;;;15.11;85.17;96798.50;5022392;28;20188;-63
2021/09/17 04:50:59;;;;;;;6.37;5.40;;;;;;;15.11;85.53;96803.78;5027541;28;20248;-63
2021/09/17 04:53:25;;;;;;;7.23;5.47;;;;;;;15.12;85.76;96796.66;5021992;28;20200;-64
2021/09/17 04:55:51;;;;;;;6.87;5.47;;;;;;;15.11;85.83;96809.06;5023296;28;20278;-64
2021/09/17 04:58:17;;;;;;;7.60;6.20;;;;;;;15.05;86.27;96806.63;5026920;28;20278;-63
2021/09/17 05:00:42;;;;;;;5.50;5.03;;;;;;;14.99;86.26;96811.88;5016222;28;20295;-63
2021/09/17 05:03:08;;;;;;;6.57;5.70;;;;;;;14.87;86.72;96802.56;5014450;28;20190;-63
2021/09/17 05:05:33;;;;;;;5.83;5.23;;;;;;;14.92;86.42;96799.97;5019631;28;20187;-64
2021/09/17 05:07:59;;;;;;;5.83;5.33;;;;;;;14.86;86.63;96793.84;5017561;28;20197;-64
2021/09/17 05:10:24;;;;;;;5.37;4.87;;;;;;;14.82;86.87;96808.59;5029428;28;20191;-63
2021/09/17 05:12:50;;;;;;;5.90;5.30;;;;;;;14.83;87.18;96809.38;5014639;28;20515;-63
2021/09/17 05:15:15;;;;;;;7.67;5.17;;;;;;;14.74;87.59;96809.06;5027653;28;20187;-63
2021/09/17 05:17:41;;;;;;;5.50;5.00;;;;;;;14.67;88.28;96808.47;4998541;28;20206;-63
2021/09/17 05:20:07;;;;;;;7.87;5.40;;;;;;;14.55;89.29;96808.63;5028083;28;20237;-63
2021/09/17 05:22:33;;;;;;;6.30;5.70;;;;;;;14.47;90.22;96808.31;5014498;28;20187;-64
2021/09/17 05:24:58;;;;;;;6.47;5.20;;;;;;;14.35;91.21;96815.53;5021124;28;20371;-63
2021/09/17 05:27:25;;;;;;;6.93;5.77;;;;;;;14.46;90.55;96820.69;5029426;28;20258;-64
2021/09/17 05:29:52;;;;;;;7.03;6.33;;;;;;;14.26;91.28;96817.84;5020302;28;20189;-64
2021/09/17 05:32:18;;;;;;;6.27;5.67;;;;;;;14.44;90.37;96821.97;5022062;28;20187;-64
2021/09/17 05:34:43;;;;;;;6.10;5.50;;;;;;;14.62;89.75;96821.63;5013477;28;20194;-65
2021/09/17 05:37:09;;;;;;;8.00;6.10;;;;;;;14.70;89.62;96821.19;5029003;28;20388;-66
2021/09/17 05:39:34;;;;;;;6.80;5.93;;;;;;;14.81;89.51;96822.84;5029190;28;20559;-65
2021/09/17 05:42:00;;;;;;;7.77;6.40;;;;;;;14.94;89.01;96826.88;5023337;28;20233;-65
2021/09/17 05:44:27;;;;;;;6.27;5.73;;;;;;;15.05;88.33;96831.19;5024966;28;20232;-65
2021/09/17 05:46:52;;;;;;;8.80;6.27;;;;;;;15.10;87.70;96828.56;5017371;28;20251;-64
2021/09/17 05:49:17;;;;;;;6.80;5.83;;;;;;;15.22;87.04;96823.91;5026251;28;20186;-64
2021/09/17 05:51:43;;;;;;;6.00;5.40;;;;;;;15.29;86.13;96818.41;5028145;28;20709;-65
2021/09/17 05:54:08;;;;;;;7.60;5.73;;;;;;;15.44;85.18;96828.25;5005449;28;20178;-63
2021/09/17 05:56:34;;;;;;;6.20;5.37;;;;;;;15.51;84.92;96824.34;5015287;28;20596;-64
2021/09/17 05:58:59;;;;;;;5.53;5.10;;;;;;;15.60;84.23;96820.22;5029177;28;20190;-64
2021/09/17 06:01:24;;;;;;;5.20;4.80;;;;;;;15.51;84.38;96821.69;5024009;28;20245;-64
2021/09/17 06:03:50;;;;;;;5.73;5.13;;;;;;;15.61;84.30;96813.84;5021173;28;20194;-63
2021/09/17 06:06:17;;;;;;;6.33;5.70;;;;;;;15.72;83.32;96819.97;5019857;28;20210;-64
2021/09/17 06:08:43;;;;;;;5.80;5.30;;;;;;;15.88;81.88;96815.56;4998749;28;20183;-64
2021/09/17 06:11:08;;;;;;;6.63;5.40;;;;;;;15.86;81.33;96815.81;5013279;28;20183;-63
2021/09/17 06:13:33;;;;;;;6.83;5.63;;;;;;;15.97;80.53;96812.16;5019371;28;20178;-63
2021/09/17 06:15:59;;;;;;;5.93;5.13;;;;;;;16.05;79.90;96811.63;5028463;28;20210;-63
2021/09/17 06:18:24;;;;;;;5.13;4.67;;;;;;;16.22;79.20;96814.06;5008809;28;20241;-63
2021/09/17 06:20:49;;;;;;;5.93;5.23;;;;;;;16.19;79.59;96815.38;5004964;28;20183;-64
2021/09/17 06:23:15;;;;;;;5.93;5.20;;;;;;;16.25;79.35;96802.97;5018837;28;20539;-64
2021/09/17 06:25:40;;;;;;;5.70;5.20;;;;;;;16.36;79.74;96817.81;5028402;28;20230;-64
2021/09/17 06:28:06;;;;;;;6.43;5.80;;;;;;;16.42;80.08;96811.47;5028432;28;20191;-64
2021/09/17 06:30:32;;;;;;;6.73;6.03;;;;;;;16.45;79.98;96818.88;5022848;28;20187;-63
2021/09/17 06:32:58;;;;;;;6.77;6.17;;;;;;;16.49;79.93;96821.78;5028869;28;20632;-63
2021/09/17 06:35:23;;;;;;;10.87;9.63;;;;;;;16.42;79.94;96815.97;5026466;28;20551;-63
2021/09/17 06:37:51;;;;;;;13.10;11.13;;;;;;;16.52;78.99;96815.97;5026381;28;20302;-64
2021/09/17 06:40:19;;;;;;;10.40;9.23;;;;;;;16.70;77.98;96812.03;5032267;28;21722;-64
2021/09/17 06:42:45;;;;;;;8.63;6.97;;;;;;;16.75;77.37;96822.63;5029937;28;20241;-63
2021/09/17 06:45:11;;;;;;;6.60;5.67;;;;;;;16.88;76.79;96811.53;5027847;28;20191;-64
2021/09/17 06:47:47;;;;;;;6.27;5.03;;;;;;;16.90;76.46;96812.03;5028314;28;20194;-64
2021/09/17 06:50:14;;;;;;;5.67;4.93;;;;;;;17.00;75.91;96819.97;5028931;28;20598;-64
2021/09/17 06:52:46;;;;;;;6.07;4.97;;;;;;;17.07;75.09;96809.91;5030809;28;20218;-64
2021/09/17 06:55:12;;;;;;;5.50;5.00;;;;;;;17.14;74.61;96815.72;5020485;28;20458;-64
2021/09/17 06:57:45;;;;;;;6.73;5.07;;;;;;;17.25;74.35;96816.50;5022199;28;20202;-64
2021/09/17 07:00:11;;;;;;;5.47;4.97;;;;;;;17.29;74.32;96809.59;5028879;28;20179;-64
2021/09/17 07:02:36;;;;;;;5.03;4.63;;;;;;;17.34;74.09;96813.03;5025851;28;20962;-64
2021/09/17 07:05:02;;;;;;;5.30;4.80;;;;;;;17.38;73.95;96810.66;5023781;28;20187;-64
2021/09/17 07:07:28;;;;;;;5.73;4.53;;;;;;;17.48;73.58;96812.47;5026514;28;20232;-65
2021/09/17 07:09:53;;;;;;;5.13;4.63;;;;;;;17.57;73.33;96811.66;5008095;28;20638;-64
2021/09/17 07:12:18;;;;;;;5.03;4.53;;;;;;;17.61;73.01;96807.41;5007327;28;20174;-64
2021/09/17 07:14:44;;;;;;;5.50;4.90;;;;;;;17.63;72.86;96809.81;5028306;28;20647;-64
2021/09/17 07:17:09;;;;;;;5.83;5.23;;;;;;;17.62;73.27;96814.31;5026852;28;20238;-64
2021/09/17 07:19:34;;;;;;;5.13;4.67;;;;;;;17.77;72.85;96816.94;5027370;28;20187;-64
2021/09/17 07:22:01;;;;;;;5.83;5.03;;;;;;;17.82;72.80;96818.75;5024242;28;20574;-64
2021/09/17 07:24:26;;;;;;;5.67;5.13;;;;;;;17.97;72.21;96813.38;5020962;28;20197;-64
2021/09/17 07:26:52;;;;;;;5.37;4.67;;;;;;;18.12;71.81;96818.59;5023330;28;20640;-64
2021/09/17 07:29:17;;;;;;;5.53;5.03;;;;;;;18.14;70.84;96823.66;5022294;28;20209;-64
2021/09/17 07:31:44;;;;;;;7.70;4.93;;;;;;;18.21;70.65;96814.31;5027963;28;20237;-64
2021/09/17 07:34:09;;;;;;;6.57;5.20;;;;;;;18.35;70.65;96819.81;5030187;28;20194;-62
2021/09/17 07:36:34;;;;;;;4.80;4.30;;;;;;;18.35;70.35;96816.34;5017703;28;20681;-64
2021/09/17 07:39:00;;;;;;;5.77;4.80;;;;;;;18.18;70.89;96820.16;5033936;28;20195;-64
2021/09/17 07:41:25;;;;;;;7.55;5.88;;;;;;;18.11;71.23;96817.00;5025238;28;20339;-63
2021/09/17 07:43:50;;;;;;;5.83;5.23;;;;;;;18.19;71.54;96819.09;5024922;28;20501;-64
2021/09/17 07:46:16;;;;;;;7.07;5.93;;;;;;;18.36;70.53;96821.41;5025423;28;20189;-65
2021/09/17 07:48:41;;;;;;;6.40;5.30;;;;;;;18.60;69.64;96817.03;5033613;28;20183;-64
2021/09/17 07:51:07;;;;;;;7.47;6.10;;;;;;;18.66;70.64;96812.47;5031525;28;20636;-65
2021/09/17 07:53:32;;;;;;;7.85;5.65;;;;;;;18.65;71.36;96821.50;5003316;28;20639;-64
2021/09/17 07:55:58;;;;;;;9.35;6.25;;;;;;;18.53;71.74;96818.38;5023957;28;20187;-63
2021/09/17 07:58:23;;;;;;;6.23;5.63;;;;;;;18.56;71.37;96821.28;5024466;28;20209;-64
2021/09/17 08:00:48;;;;;;;6.90;6.20;;;;;;;18.64;71.21;96815.41;5029427;28;20244;-64
2021/09/17 08:03:14;;;;;;;11.25;6.47;;;;;;;18.58;71.65;96828.97;5003482;28;20624;-66
2021/09/17 08:05:39;;;;;;;7.70;5.90;;;;;;;18.90;70.28;96825.81;5029265;28;20194;-65
2021/09/17 08:08:04;;;;;;;11.88;5.85;;;;;;;19.13;69.29;96818.97;5025402;28;20184;-64
2021/09/17 08:10:31;;;;;;;6.85;5.45;;;;;;;19.18;68.61;96824.22;5024278;28;20202;-64
2021/09/17 08:12:56;;;;;;;7.22;5.25;;;;;;;19.31;68.52;96818.28;5028469;28;20186;-63
2021/09/17 08:15:22;;;;;;;7.75;6.53;;;;;;;19.56;67.97;96817.25;5017857;28;20190;-64
2021/09/17 08:17:47;;;;;;;5.95;5.45;;;;;;;19.64;67.07;96822.72;5020343;28;20202;-64
2021/09/17 08:20:13;;;;;;;5.65;5.15;;;;;;;19.64;67.65;96816.63;5009430;28;20655;-64
2021/09/17 08:22:38;;;;;;;6.60;5.80;;;;;;;19.68;66.18;96817.63;5023363;28;20194;-66
2021/09/17 08:25:06;;;;;;;6.10;5.50;;;;;;;19.36;64.59;96816.34;5029048;28;20179;-64
2021/09/17 08:27:32;;;;;;;5.78;5.18;;;;;;;19.32;64.87;96819.88;5005724;28;20640;-64
2021/09/17 08:29:57;;;;;;;6.38;5.53;;;;;;;19.53;63.92;96821.25;5023737;28;20179;-65
2021/09/17 08:32:22;;;;;;;5.50;5.00;;;;;;;19.84;62.47;96822.50;5017451;28;20187;-64
2021/09/17 08:34:48;;;;;;;7.97;5.70;;;;;;;19.08;69.47;96819.81;5027373;28;20187;-64
2021/09/17 08:37:13;;;;;;;8.73;5.90;;;;;;;18.85;71.64;96825.84;5004584;28;20309;-64
2021/09/17 08:39:38;;;;;;;6.80;6.10;;;;;;;18.40;74.04;96824.28;5023320;28;20266;-64
2021/09/17 08:42:07;;;;;;;8.60;5.75;;;;;;;18.74;73.74;96819.03;5022894;28;20226;-64
2021/09/17 08:44:33;;;;;;;6.68;6.00;;;;;;;18.59;74.82;96818.09;5015989;28;20207;-64
2021/09/17 08:46:58;;;;;;;8.02;6.68;;;;;;;18.53;71.05;96819.16;5023150;28;20225;-64
2021/09/17 08:49:24;;;;;;;9.45;7.00;;;;;;;18.82;68.95;96823.75;5001300;28;20273;-64
2021/09/17 08:51:51;;;;;;;8.48;6.80;;;;;;;19.22;67.55;96819.97;5027630;28;20187;-64
2021/09/17 08:54:17;;;;;;;10.30;6.65;;;;;;;19.61;66.16;96822.53;5016132;28;20195;-64
2021/09/17 08:56:42;;;;;;;8.30;6.70;;;;;;;19.34;65.27;96826.47;5025775;28;20214;-64
2021/09/17 08:59:07;;;;;;;8.90;6.72;;;;;;;19.33;64.74;96819.59;5024481;28;20186;-64
2021/09/17 09:01:36;;;;;;;7.88;6.75;;;;;;;19.76;63.40;96827.66;5020108;28;20187;-64
2021/09/17 09:04:07;;;;;;;10.40;6.93;;;;;;;19.98;62.55;96824.47;5018192;28;20195;-64
2021/09/17 09:06:39;;;;;;;9.27;7.18;;;;;;;19.76;63.17;96835.63;5014664;28;20183;-64
2021/09/17 09:09:14;;;;;;;6.90;6.15;;;;;;;20.03;62.59;96835.03;5017960;28;20187;-64
2021/09/17 09:11:40;;;;;;;9.35;7.38;;;;;;;20.04;61.87;96831.31;5021057;28;20646;-64
2021/09/17 09:14:11;;;;;;;7.85;7.05;;;;;;;20.15;61.48;96828.22;5029267;28;20235;-64
2021/09/17 09:16:45;;;;;;;8.10;7.28;;;;;;;20.47;60.61;96827.56;5026950;28;20683;-64
2021/09/17 09:19:34;;;;;;;7.78;6.95;;;;;;;20.73;60.52;96820.00;5016297;28;20209;-64
2021/09/17 09:22:02;;;;;;;6.97;6.28;;;;;;;21.05;59.77;96827.19;5024799;28;20183;-64
2021/09/17 09:24:28;;;;;;;8.02;6.70;;;;;;;21.13;58.75;96821.19;5014104;28;20191;-64
2021/09/17 09:27:13;;;;;;;9.40;7.88;;;;;;;21.07;57.62;96825.81;5016255;28;20274;-64
2021/09/17 09:29:42;;;;;;;8.60;7.22;;;;;;;21.00;58.19;96821.94;5019772;28;20189;-64
2021/09/17 09:32:07;;;;;;;9.77;6.55;;;;;;;20.99;57.61;96807.84;5022475;28;20174;-64
2021/09/17 09:34:49;;;;;;;12.02;6.55;;;;;;;21.31;57.13;96812.38;5021937;28;21031;-65
2021/09/17 09:37:17;;;;;;;7.20;6.50;;;;;;;21.03;57.63;96808.81;5031809;28;20697;-64
2021/09/17 09:39:54;;;;;;;10.23;7.70;;;;;;;21.29;57.21;96809.19;5017821;28;20187;-65
2021/09/17 09:42:28;;;;;;;9.23;7.13;;;;;;;21.36;56.21;96809.59;5028814;28;20586;-65
2021/09/17 09:45:10;;;;;;;7.05;6.30;;;;;;;21.34;56.68;96806.47;5021213;28;20175;-65
2021/09/17 09:47:38;;;;;;;7.18;6.47;;;;;;;21.28;56.47;96802.31;5022222;28;20262;-65
2021/09/17 09:50:28;;;;;;;7.07;6.30;;;;;;;21.54;54.50;96800.72;5027500;28;20672;-65
2021/09/17 09:52:56;;;;;;;7.70;6.43;;;;;;;21.85;53.70;96798.25;5031315;28;20275;-65
2021/09/17 09:55:22;;;;;;;8.23;6.18;;;;;;;22.01;53.28;96793.44;5025486;28;20217;-65
2021/09/17 09:57:48;;;;;;;8.30;7.25;;;;;;;21.85;53.22;96787.56;5022095;28;20214;-65
2021/09/17 10:00:14;;;;;;;11.60;7.97;;;;;;;21.94;54.91;96796.50;5027526;28;20191;-65
2021/09/17 10:02:42;;;;;;;7.07;5.95;;;;;;;22.09;53.68;96794.59;5016981;28;20202;-65
2021/09/17 10:05:10;;;;;;;7.20;6.43;;;;;;;22.01;52.24;96798.78;5018919;28;20187;-65
2021/09/17 10:07:36;;;;;;;6.88;6.22;;;;;;;22.23;52.01;96798.81;5029061;28;20187;-65
2021/09/17 10:10:05;;;;;;;7.68;6.43;;;;;;;22.42;52.91;96789.84;5008152;28;20190;-65
2021/09/17 10:12:30;;;;;;;7.22;5.20;;;;;;;22.10;50.41;96782.81;5019977;28;20202;-65
2021/09/17 10:14:57;;;;;;;4.82;4.43;;;;;;;22.12;50.26;96789.47;5027251;28;20190;-65
2021/09/17 10:17:32;;;;;;;5.10;4.68;;;;;;;21.00;53.24;96784.63;5017027;28;20202;-65
2021/09/17 10:19:59;;;;;;;8.38;6.25;;;;;;;20.81;55.53;96789.22;5031432;28;20182;-65
2021/09/17 10:22:25;;;;;;;9.48;6.38;;;;;;;20.87;56.01;96783.50;5034658;28;20218;-65
2021/09/17 10:25:12;;;;;;;6.97;6.28;;;;;;;21.62;54.80;96779.81;5017807;28;20265;-64
2021/09/17 10:27:41;;;;;;;5.95;5.35;;;;;;;22.13;51.55;96775.00;5023012;28;20191;-65
2021/09/17 10:30:10;;;;;;;6.38;5.75;;;;;;;22.32;51.36;96775.66;5019755;28;20271;-64
2021/09/17 10:32:53;;;;;;;8.27;5.20;;;;;;;22.50;50.88;96776.56;5027190;28;20187;-65
2021/09/17 10:35:27;;;;;;;4.88;4.38;;;;;;;22.72;49.92;96773.16;5029566;28;20313;-65
2021/09/17 10:37:52;;;;;;;6.82;4.95;;;;;;;22.91;49.65;96770.25;5020551;28;20214;-65
2021/09/17 10:40:32;;;;;;;6.32;5.30;;;;;;;22.62;49.92;96770.69;5030085;28;20187;-64
2021/09/17 10:43:09;;;;;;;5.25;4.72;;;;;;;22.14;50.74;96776.56;5024268;28;20187;-64
2021/09/17 10:45:43;;;;;;;5.45;4.95;;;;;;;22.08;50.77;96777.78;5031110;28;20252;-64
2021/09/17 10:48:20;;;;;;;7.68;4.78;;;;;;;22.42;49.87;96769.28;5019065;28;20186;-65
2021/09/17 10:50:55;;;;;;;6.18;5.03;;;;;;;21.74;51.36;96766.72;5025364;28;20633;-64
2021/09/17 10:53:39;;;;;;;4.93;4.53;;;;;;;22.08;50.64;96763.63;5028214;28;20182;-65
2021/09/17 10:56:12;;;;;;;4.85;4.45;;;;;;;22.34;49.94;96754.00;5022556;28;20182;-65
2021/09/17 10:58:41;;;;;;;4.80;4.40;;;;;;;22.31;47.92;96759.91;5027616;28;20246;-64
2021/09/17 11:01:11;;;;;;;3.78;3.45;;;;;;;22.68;48.91;96764.91;5023478;28;20187;-65
2021/09/17 11:03:36;;;;;;;4.40;4.00;;;;;;;22.23;51.77;96763.31;5022994;28;20654;-65
2021/09/17 11:08:48;;;;;;;4.28;3.90;;;;;;;21.90;53.67;96762.69;5031864;28;20205;-65
2021/09/17 11:11:25;;;;;;;5.18;4.68;;;;;;;21.91;52.03;96767.69;5020842;28;20186;-64
2021/09/17 11:13:57;;;;;;;7.43;4.68;;;;;;;22.13;52.11;96761.66;5012092;28;20628;-65
2021/09/17 11:16:24;;;;;;;4.97;4.43;;;;;;;22.31;50.58;96758.03;5030073;28;20263;-65
2021/09/17 11:18:55;;;;;;;5.32;4.15;;;;;;;22.53;50.78;96761.81;5019927;28;20191;-64
2021/09/17 11:21:21;;;;;;;5.70;4.40;;;;;;;21.87;50.95;96760.59;5023883;28;20298;-65
2021/09/17 11:23:51;;;;;;;6.07;4.15;;;;;;;21.83;51.63;96760.41;5029398;28;20190;-65
2021/09/17 11:26:37;;;;;;;4.90;4.45;;;;;;;22.09;51.29;96757.22;5008502;28;20183;-64
2021/09/17 11:29:05;;;;;;;6.13;3.72;;;;;;;21.93;50.98;96754.06;5028838;28;20210;-66
2021/09/17 11:31:35;;;;;;;4.63;3.63;;;;;;;22.17;50.88;96759.19;5027003;28;20601;-66
2021/09/17 11:34:06;;;;;;;6.10;3.63;;;;;;;22.09;50.59;96755.34;5019846;28;20175;-65
2021/09/17 11:36:38;;;;;;;3.70;3.40;;;;;;;22.23;49.91;96744.63;5022110;28;20191;-64